createdAt,value
2022-12-28T00:01:38.476Z,-1.70
2022-12-28T00:04:09.137Z,-1.70
2022-12-28T00:06:39.087Z,-1.70
2022-12-28T00:09:09.157Z,-1.70
2022-12-28T00:11:40.762Z,-1.70
2022-12-28T00:14:10.903Z,-1.70
2022-12-28T00:16:44.516Z,-1.70
2022-12-28T00:19:16.258Z,-1.50
2022-12-28T00:21:47.117Z,-1.70
2022-12-28T00:24:20.962Z,-1.70
2022-12-28T00:26:51.118Z,-1.70
2022-12-28T00:29:21.766Z,-1.60
2022-12-28T00:31:54.380Z,-1.60
2022-12-28T00:34:27.333Z,-1.70
2022-12-28T00:37:11.593Z,-1.60
2022-12-28T00:39:44.199Z,-1.70
2022-12-28T00:42:18.240Z,-1.70
2022-12-28T00:44:48.193Z,-1.60
2022-12-28T00:47:22.124Z,-1.60
2022-12-28T00:49:52.064Z,-1.70
2022-12-28T00:52:22.084Z,-1.70
2022-12-28T00:54:52.097Z,-1.70
2022-12-28T00:57:22.057Z,-1.70
2022-12-28T00:59:52.017Z,-1.70
2022-12-28T01:02:24.537Z,-1.70
2022-12-28T01:04:54.473Z,-1.70
2022-12-28T01:07:24.395Z,-1.70
2022-12-28T01:09:54.373Z,-1.70
2022-12-28T01:14:54.517Z,-1.60
2022-12-28T01:17:27.008Z,-1.60
2022-12-28T01:19:56.984Z,-1.60
2022-12-28T01:22:26.973Z,-1.70
2022-12-28T01:24:57.049Z,-1.60
2022-12-28T01:27:26.988Z,-1.60
2022-12-28T01:29:57.502Z,-1.60
2022-12-28T01:32:30.032Z,-1.60
2022-12-28T01:34:59.988Z,-1.60
2022-12-28T01:37:29.908Z,-1.50
2022-12-28T01:40:00.975Z,-1.50
2022-12-28T01:42:30.925Z,-1.50
2022-12-28T01:45:19.415Z,-1.50
2022-12-28T01:47:54.711Z,-1.40
2022-12-28T01:50:28.646Z,-1.40
2022-12-28T01:53:01.997Z,-1.40
2022-12-28T01:55:35.738Z,-1.40
2022-12-28T01:58:10.274Z,-1.40
2022-12-28T02:00:40.088Z,-1.40
2022-12-28T02:03:18.129Z,-1.40
2022-12-28T02:05:52.693Z,-1.40
2022-12-28T02:08:28.701Z,-1.40
2022-12-28T02:10:59.944Z,-1.40
2022-12-28T02:13:30.767Z,-1.30
2022-12-28T02:16:00.851Z,-1.20
2022-12-28T02:18:33.511Z,-1.30
2022-12-28T02:21:29.383Z,-1.30
2022-12-28T02:24:36.130Z,-1.30
2022-12-28T02:27:14.505Z,-1.30
2022-12-28T02:30:04.484Z,-1.30
2022-12-28T02:32:58.872Z,-1.30
2022-12-28T02:35:37.450Z,-1.30
2022-12-28T02:38:13.340Z,-1.20
2022-12-28T02:40:47.256Z,-1.20
2022-12-28T02:43:17.993Z,-1.20
2022-12-28T02:46:03.903Z,-1.10
2022-12-28T02:48:54.943Z,-1.00
2022-12-28T02:51:49.537Z,-1.00
2022-12-28T02:55:02.826Z,-1.10
2022-12-28T02:57:53.109Z,-1.00
2022-12-28T03:00:26.521Z,-1.00
2022-12-28T03:03:11.185Z,-1.00
2022-12-28T03:06:05.743Z,-1.00
2022-12-28T03:08:46.540Z,-1.00
2022-12-28T03:11:20.886Z,-1.10
2022-12-28T03:13:58.453Z,-1.10
2022-12-28T03:16:32.341Z,-1.10
2022-12-28T03:19:20.959Z,-1.20
2022-12-28T03:22:04.614Z,-1.20
2022-12-28T03:24:49.536Z,-1.20
2022-12-28T03:27:37.236Z,-1.00
2022-12-28T03:30:26.149Z,-1.00
2022-12-28T03:32:56.787Z,-1.00
2022-12-28T03:35:36.430Z,-1.00
2022-12-28T03:38:07.444Z,-1.00
2022-12-28T03:40:47.230Z,-1.00
2022-12-28T03:43:36.357Z,-0.90
2022-12-28T03:46:11.259Z,-0.90
2022-12-28T03:48:44.629Z,-0.90
2022-12-28T03:51:22.454Z,-0.90
2022-12-28T03:53:53.205Z,-0.90
2022-12-28T03:56:27.791Z,-0.90
2022-12-28T03:59:00.109Z,-0.90
2022-12-28T04:01:38.833Z,-0.90
2022-12-28T04:04:08.908Z,-0.90
2022-12-28T04:06:41.450Z,-0.90
2022-12-28T04:09:11.648Z,-0.80
2022-12-28T04:11:44.352Z,-0.80
2022-12-28T04:14:22.329Z,-0.70
2022-12-28T04:16:52.804Z,-0.70
2022-12-28T04:19:23.946Z,-0.60
2022-12-28T04:21:57.850Z,-0.70
2022-12-28T04:24:27.872Z,-0.60
2022-12-28T04:26:58.282Z,-0.60
2022-12-28T04:29:28.285Z,-0.70
2022-12-28T04:32:04.236Z,-0.70
2022-12-28T04:34:34.254Z,-0.70
2022-12-28T04:37:14.090Z,-0.70
2022-12-28T04:39:55.321Z,-0.70
2022-12-28T04:42:27.184Z,-0.70
2022-12-28T04:44:57.167Z,-0.70
2022-12-28T04:47:27.120Z,-0.70
2022-12-28T04:49:57.057Z,-0.60
2022-12-28T04:52:29.619Z,-0.60
2022-12-28T04:54:59.541Z,-0.60
2022-12-28T04:57:29.505Z,-0.60
2022-12-28T04:59:59.503Z,-0.60
2022-12-28T05:02:29.728Z,-0.60
2022-12-28T05:04:59.794Z,-0.50
2022-12-28T05:07:32.443Z,-0.50
2022-12-28T05:10:02.386Z,-0.40
2022-12-28T05:12:32.362Z,-0.40
2022-12-28T05:15:02.338Z,-0.40
2022-12-28T05:17:32.253Z,-0.40
2022-12-28T05:20:02.196Z,-0.40
2022-12-28T05:22:40.499Z,-0.30
2022-12-28T05:25:11.604Z,-0.30
2022-12-28T05:27:41.503Z,-0.20
2022-12-28T05:30:12.941Z,-0.30
2022-12-28T05:32:42.903Z,-0.20
2022-12-28T05:35:13.172Z,-0.10
2022-12-28T05:37:45.675Z,-0.10
2022-12-28T05:40:15.682Z,-0.10
2022-12-28T05:52:59.151Z,0.40
2022-12-28T06:08:03.671Z,0.30
2022-12-28T06:10:33.662Z,0.30
2022-12-28T06:13:03.670Z,0.40
2022-12-28T06:15:33.791Z,0.40
2022-12-28T06:20:34.038Z,0.40
2022-12-28T06:23:06.652Z,0.40
2022-12-28T06:25:36.744Z,0.40
2022-12-28T06:28:07.204Z,1.60
2022-12-28T06:30:37.210Z,0.40
2022-12-28T06:33:07.211Z,0.40
2022-12-28T06:35:37.220Z,0.40
2022-12-28T06:38:09.834Z,0.40
2022-12-28T06:41:11.823Z,0.40
2022-12-28T06:43:29.777Z,0.40
2022-12-28T06:46:00.025Z,0.40
2022-12-28T06:48:30.294Z,0.40
2022-12-28T06:51:01.866Z,0.40
2022-12-28T06:53:36.857Z,0.40
2022-12-28T06:56:08.824Z,0.40
2022-12-28T06:58:39.794Z,0.40
2022-12-28T07:01:10.989Z,0.50
2022-12-28T07:03:41.179Z,0.50
2022-12-28T07:08:46.167Z,0.50
2022-12-28T07:11:17.130Z,0.50
2022-12-28T07:13:47.323Z,0.50
2022-12-28T07:16:19.485Z,0.50
2022-12-28T07:18:52.971Z,0.60
2022-12-28T07:21:26.410Z,3.00
2022-12-28T07:24:00.464Z,0.60
2022-12-28T07:26:32.650Z,0.60
2022-12-28T07:29:04.155Z,0.70
2022-12-28T07:31:43.781Z,0.70
2022-12-28T07:34:15.247Z,0.70
2022-12-28T07:36:45.650Z,0.80
2022-12-28T07:39:18.184Z,0.80
2022-12-28T07:41:49.133Z,0.90
2022-12-28T07:44:29.277Z,1.00
2022-12-28T07:46:59.569Z,1.00
2022-12-28T07:49:29.456Z,1.10
2022-12-28T07:51:59.422Z,1.10
2022-12-28T07:54:31.978Z,1.20
2022-12-28T07:57:01.982Z,1.20
2022-12-28T07:59:31.961Z,1.30
2022-12-28T08:02:02.306Z,1.30
2022-12-28T08:04:32.417Z,1.30
2022-12-28T08:07:02.464Z,1.40
2022-12-28T08:09:34.993Z,1.50
2022-12-28T08:12:05.275Z,1.50
2022-12-28T08:17:05.526Z,1.60
2022-12-28T08:19:36.087Z,2.00
2022-12-28T08:22:06.024Z,1.70
2022-12-28T08:24:38.582Z,1.70
2022-12-28T08:27:08.496Z,1.70
2022-12-28T08:29:39.620Z,1.80
2022-12-28T08:32:09.633Z,2.60
2022-12-28T08:34:39.583Z,1.80
2022-12-28T08:37:09.565Z,1.90
2022-12-28T08:39:42.093Z,1.90
2022-12-28T08:42:12.100Z,2.00
2022-12-28T08:47:12.393Z,2.20
2022-12-28T08:49:44.514Z,2.20
2022-12-28T08:52:15.572Z,2.30
2022-12-28T08:54:48.269Z,2.30
2022-12-28T08:57:18.384Z,2.40
2022-12-28T08:59:48.418Z,2.50
2022-12-28T09:02:18.533Z,2.60
2022-12-28T09:04:48.638Z,2.70
2022-12-28T09:07:18.624Z,2.80
2022-12-28T09:09:51.181Z,2.90
2022-12-28T09:14:51.419Z,3.00
2022-12-28T09:17:21.321Z,3.10
2022-12-28T09:19:51.339Z,3.20
2022-12-28T09:22:21.309Z,3.30
2022-12-28T09:24:53.899Z,3.30
2022-12-28T09:27:23.917Z,3.40
2022-12-28T09:29:53.964Z,3.50
2022-12-28T09:32:23.915Z,3.60
2022-12-28T09:34:54.203Z,3.60
2022-12-28T09:37:24.152Z,3.70
2022-12-28T09:40:01.188Z,3.80
2022-12-28T09:42:32.776Z,3.80
2022-12-28T09:45:06.375Z,3.90
2022-12-28T09:47:41.219Z,4.00
2022-12-28T09:50:30.240Z,4.00
2022-12-28T09:53:20.197Z,4.00
2022-12-28T09:56:00.618Z,4.10
2022-12-28T09:58:32.374Z,4.20
2022-12-28T10:01:04.519Z,4.30
2022-12-28T10:03:40.580Z,4.30
2022-12-28T10:06:15.570Z,4.30
2022-12-28T10:08:49.054Z,4.40
2022-12-28T10:11:25.544Z,4.40
2022-12-28T10:13:58.436Z,4.50
2022-12-28T10:16:32.658Z,5.10
2022-12-28T10:19:03.173Z,4.60
2022-12-28T10:21:36.274Z,4.60
2022-12-28T10:27:07.177Z,4.70
2022-12-28T10:29:37.552Z,4.80
2022-12-28T10:32:09.508Z,4.70
2022-12-28T10:34:40.367Z,4.80
2022-12-28T10:37:16.868Z,4.70
2022-12-28T10:39:55.461Z,4.70
2022-12-28T10:42:30.965Z,4.80
2022-12-28T10:45:06.296Z,4.80
2022-12-28T10:47:39.511Z,4.80
2022-12-28T10:50:35.989Z,4.80
2022-12-28T10:53:01.231Z,4.90
2022-12-28T10:55:33.509Z,5.20
2022-12-28T10:58:33.079Z,5.30
2022-12-28T11:01:08.119Z,5.50
2022-12-28T11:03:40.692Z,5.60
2022-12-28T11:06:26.614Z,5.70
2022-12-28T11:09:07.503Z,5.70
2022-12-28T11:11:37.654Z,5.80
2022-12-28T11:14:19.281Z,5.70
2022-12-28T11:16:49.303Z,5.80
2022-12-28T11:19:19.803Z,5.80
2022-12-28T11:21:49.972Z,5.90
2022-12-28T11:24:21.264Z,5.90
2022-12-28T11:26:52.971Z,5.90
2022-12-28T11:29:25.572Z,6.00
2022-12-28T11:32:04.043Z,5.90
2022-12-28T11:34:35.092Z,6.00
2022-12-28T11:37:06.517Z,6.10
2022-12-28T11:39:46.553Z,6.30
2022-12-28T11:42:51.647Z,6.50
2022-12-28T11:45:52.747Z,6.70
2022-12-28T11:48:41.831Z,6.70
2022-12-28T11:51:19.368Z,6.70
2022-12-28T11:53:58.454Z,6.60
2022-12-28T11:56:30.241Z,6.50
2022-12-28T11:59:25.375Z,6.50
2022-12-28T12:01:58.669Z,6.40
2022-12-28T12:04:35.522Z,6.30
2022-12-28T12:07:48.590Z,6.30
2022-12-28T12:10:36.599Z,6.20
2022-12-28T12:13:51.437Z,6.20
2022-12-28T12:16:29.893Z,6.10
2022-12-28T12:19:03.825Z,6.10
2022-12-28T12:21:37.637Z,6.50
2022-12-28T12:24:28.079Z,6.30
2022-12-28T12:27:10.191Z,6.20
2022-12-28T12:29:43.842Z,6.20
2022-12-28T12:32:20.846Z,6.20
2022-12-28T12:34:57.306Z,5.90
2022-12-28T12:37:40.039Z,6.30
2022-12-28T12:40:27.102Z,6.30
2022-12-28T12:43:15.669Z,6.30
2022-12-28T12:45:56.381Z,6.40
2022-12-28T12:48:48.142Z,6.10
2022-12-28T12:51:29.786Z,6.50
2022-12-28T12:54:15.418Z,6.60
2022-12-28T12:56:52.348Z,6.70
2022-12-28T12:59:39.085Z,6.70
2022-12-28T13:02:32.553Z,6.90
2022-12-28T13:05:06.866Z,7.10
2022-12-28T13:07:39.536Z,7.50
2022-12-28T13:10:16.855Z,7.70
2022-12-28T13:12:47.167Z,7.70
2022-12-28T13:15:19.951Z,8.20
2022-12-28T13:20:57.808Z,8.30
2022-12-28T13:23:32.468Z,8.00
2022-12-28T13:26:04.453Z,8.10
2022-12-28T13:28:37.533Z,7.90
2022-12-28T13:31:11.714Z,7.70
2022-12-28T13:33:42.048Z,7.50
2022-12-28T13:36:17.525Z,7.40
2022-12-28T13:38:50.227Z,7.30
2022-12-28T13:41:25.481Z,7.40
2022-12-28T13:44:17.190Z,7.20
2022-12-28T13:46:51.010Z,6.90
2022-12-28T13:49:23.043Z,7.20
2022-12-28T13:51:54.034Z,6.90
2022-12-28T13:54:28.067Z,7.00
2022-12-28T13:57:28.334Z,6.90
2022-12-28T13:59:50.574Z,7.00
2022-12-28T14:02:23.737Z,6.80
2022-12-28T14:04:55.156Z,6.80
2022-12-28T14:07:30.472Z,6.40
2022-12-28T14:10:03.347Z,6.70
2022-12-28T14:12:34.828Z,6.50
2022-12-28T14:15:05.565Z,6.80
2022-12-28T14:17:36.070Z,6.40
2022-12-28T14:20:06.765Z,6.90
2022-12-28T14:22:39.630Z,6.50
2022-12-28T14:25:15.197Z,6.50
2022-12-28T14:27:48.950Z,6.50
2022-12-28T14:30:31.375Z,6.60
2022-12-28T14:33:13.404Z,6.20
2022-12-28T14:35:50.779Z,6.40
2022-12-28T14:38:24.455Z,6.40
2022-12-28T14:40:59.918Z,5.90
2022-12-28T14:43:32.183Z,6.30
2022-12-28T14:46:18.126Z,5.90
2022-12-28T14:48:47.948Z,6.30
2022-12-28T14:51:29.768Z,6.20
2022-12-28T14:54:23.103Z,6.10
2022-12-28T14:57:01.209Z,6.20
2022-12-28T14:59:35.976Z,6.20
2022-12-28T15:02:06.255Z,6.20
2022-12-28T15:04:39.505Z,6.10
2022-12-28T15:07:11.931Z,6.10
2022-12-28T15:09:42.086Z,5.80
2022-12-28T15:12:17.773Z,6.30
2022-12-28T15:14:48.161Z,5.50
2022-12-28T15:17:18.654Z,6.10
2022-12-28T15:24:49.404Z,6.30
2022-12-28T15:27:22.056Z,5.90
2022-12-28T15:35:12.649Z,6.30
2022-12-28T15:37:42.717Z,5.90
2022-12-28T15:40:14.144Z,5.80
2022-12-28T15:42:49.305Z,5.90
2022-12-28T15:45:19.830Z,5.90
2022-12-28T15:47:49.830Z,6.10
2022-12-28T15:57:53.689Z,5.80
2022-12-28T16:00:23.878Z,5.70
2022-12-28T16:02:55.488Z,5.70
2022-12-28T16:12:58.917Z,6.10
2022-12-28T16:17:59.304Z,5.50
2022-12-28T16:20:30.320Z,5.00
2022-12-28T16:23:00.299Z,5.50
2022-12-28T16:28:03.189Z,5.50
2022-12-28T16:35:33.587Z,5.60
2022-12-28T16:43:08.364Z,5.60
2022-12-28T16:45:39.129Z,5.10
2022-12-28T16:48:10.381Z,5.30
2022-12-28T16:50:40.802Z,5.40
2022-12-28T16:53:11.422Z,5.10
2022-12-28T16:55:43.965Z,5.60
2022-12-28T16:58:16.540Z,5.60
2022-12-28T17:00:46.700Z,5.40
2022-12-28T17:05:50.972Z,5.70
2022-12-28T17:08:21.293Z,5.50
2022-12-28T17:13:24.115Z,5.20
2022-12-28T17:18:24.575Z,5.40
2022-12-28T17:25:57.071Z,5.70
2022-12-28T17:28:29.762Z,4.60
2022-12-28T17:31:08.651Z,5.20
2022-12-28T17:36:11.312Z,5.10
2022-12-28T17:41:14.029Z,5.00
2022-12-28T17:43:48.541Z,5.10
2022-12-28T17:46:18.390Z,5.10
2022-12-28T17:48:48.842Z,4.90
2022-12-28T17:53:49.396Z,4.60
2022-12-28T17:56:19.910Z,5.10
2022-12-28T17:58:57.387Z,4.40
2022-12-28T18:01:28.779Z,4.30
2022-12-28T18:08:59.925Z,4.50
2022-12-28T18:14:02.763Z,5.90
2022-12-28T18:16:32.858Z,4.80
2022-12-28T18:21:33.150Z,4.30
2022-12-28T18:24:03.747Z,4.70
2022-12-28T18:26:33.895Z,4.40
2022-12-28T18:29:06.872Z,5.10
2022-12-28T18:31:37.032Z,4.30
2022-12-28T18:41:38.279Z,4.20
2022-12-28T18:44:11.047Z,4.20
2022-12-28T18:54:12.413Z,4.30
2022-12-28T18:56:42.442Z,4.10
2022-12-28T18:59:15.268Z,4.20
2022-12-28T19:12:07.156Z,4.40
2022-12-28T19:14:39.718Z,4.10
2022-12-28T19:19:40.079Z,4.30
2022-12-28T19:24:40.385Z,4.00
2022-12-28T19:29:43.387Z,4.00
2022-12-28T19:37:13.996Z,4.30
2022-12-28T19:39:44.038Z,4.20
2022-12-28T19:42:14.018Z,4.30
2022-12-28T19:44:46.691Z,7.10
2022-12-28T19:54:47.844Z,4.20
2022-12-28T19:59:51.043Z,4.10
2022-12-28T20:02:21.313Z,4.30
2022-12-28T20:07:21.741Z,4.20
2022-12-28T20:09:53.062Z,4.20
2022-12-28T20:14:57.456Z,5.00
2022-12-28T20:19:59.504Z,4.40
2022-12-28T20:30:03.215Z,4.10
2022-12-28T20:32:33.495Z,4.10
2022-12-28T20:37:33.745Z,3.70
2022-12-28T20:45:19.763Z,3.80
2022-12-28T20:47:49.827Z,3.90
2022-12-28T20:50:20.018Z,4.00
2022-12-28T21:00:28.953Z,3.80
2022-12-28T21:08:00.261Z,3.60
2022-12-28T21:15:33.482Z,3.60
2022-12-28T21:20:38.698Z,3.80
2022-12-28T21:23:09.182Z,4.50
2022-12-28T21:25:39.134Z,4.60
2022-12-28T21:28:09.252Z,3.10
2022-12-28T21:30:41.917Z,3.50
2022-12-28T21:33:12.924Z,3.80
2022-12-28T21:40:43.619Z,3.70
2022-12-28T21:45:46.462Z,3.40
2022-12-28T21:48:16.489Z,3.20
2022-12-28T21:55:47.256Z,3.70
2022-12-28T21:58:17.217Z,3.40
2022-12-28T22:01:02.372Z,3.50
2022-12-28T22:03:53.423Z,3.10
2022-12-28T22:06:23.400Z,3.40
2022-12-28T22:09:05.804Z,3.00
2022-12-28T22:16:51.499Z,3.60
2022-12-28T22:19:21.510Z,4.50
2022-12-28T22:21:51.529Z,3.60
2022-12-28T22:24:21.548Z,3.50
2022-12-28T22:26:51.905Z,4.20
2022-12-28T22:31:56.894Z,3.80
2022-12-28T22:41:57.626Z,3.90
2022-12-28T22:44:27.598Z,4.10
2022-12-28T22:47:00.137Z,4.10
2022-12-28T22:52:00.392Z,4.10
2022-12-28T23:02:03.892Z,4.20
2022-12-28T23:07:04.615Z,4.00
2022-12-28T23:09:36.839Z,3.80
2022-12-28T23:12:07.914Z,2.10
2022-12-28T23:17:26.598Z,4.20
2022-12-28T23:23:07.340Z,4.40
2022-12-28T23:28:20.172Z,4.50
2022-12-28T23:30:51.553Z,4.70
2022-12-28T23:33:24.285Z,4.90
2022-12-28T23:38:24.614Z,5.20
2022-12-28T23:41:14.536Z,4.60
2022-12-28T23:43:44.537Z,4.70
2022-12-28T23:46:14.611Z,4.70
2022-12-28T23:48:47.183Z,5.10
2022-12-28T23:51:18.121Z,4.80
2022-12-28T23:53:49.527Z,5.10
2022-12-28T23:56:19.485Z,5.30
2022-12-28T23:58:52.225Z,5.20
